Olivedos, Brazil
Current Conditions -  °F | °C
As of 8:00 AM on Wednesday 28 Jan 2015 (Local Time) from SBKG Reporting Station
Scattered Clouds Scattered Clouds  
Wind Chill: 75°   Ceiling: Unl
Heat Index: 75°   Visibility: 6mi
Dew Point: 64°   Wind: 17mph
Humidity: 69%   Direction: 120°ESE
Pressure: 30"   Gusts: NA
Location:  6.99°S, 36.24°W
Report Text: SBKG 281100Z 12015KT 9999 SCT015 24/18 Q1016
Loading
Personal Weather Stations






























Interactive Weather Map New forecast layout! Learn more

10-Day Weather Forecast

Advertisements
Track Severe Weather on mobile